createdAt,value
2018-12-18T00:02:19.824Z,20.45
2018-12-18T00:04:48.234Z,29.02
2018-12-18T00:07:16.376Z,12.78
2018-12-18T00:09:44.595Z,26.68
2018-12-18T00:12:12.793Z,29.23
2018-12-18T00:14:41.033Z,25.40
2018-12-18T00:17:09.318Z,22.45
2018-12-18T00:19:37.590Z,22.13
2018-12-18T00:22:06.119Z,27.77
2018-12-18T00:24:34.453Z,22.67
2018-12-18T00:27:02.783Z,20.40
2018-12-18T00:29:30.999Z,17.12
2018-12-18T00:31:59.237Z,23.67
2018-12-18T00:34:27.491Z,40.20
2018-12-18T00:36:55.688Z,24.25
2018-12-18T00:39:23.967Z,20.72
2018-12-18T00:41:56.382Z,23.38
2018-12-18T00:44:25.202Z,23.73
2018-12-18T00:46:53.647Z,21.60
2018-12-18T00:49:21.815Z,22.05
2018-12-18T00:51:49.961Z,23.87
2018-12-18T00:54:18.227Z,18.55
2018-12-18T00:56:46.415Z,22.27
2018-12-18T00:59:14.676Z,21.87
2018-12-18T01:01:47.204Z,21.48
2018-12-18T01:04:15.641Z,26.30
2018-12-18T01:06:43.925Z,23.30
2018-12-18T01:09:12.195Z,20.50
2018-12-18T01:11:40.445Z,24.67
2018-12-18T01:14:08.595Z,20.90
2018-12-18T01:16:36.832Z,21.30
2018-12-18T01:19:05.142Z,27.52
2018-12-18T01:21:33.351Z,24.63
2018-12-18T01:24:08.228Z,25.40
2018-12-18T01:26:36.463Z,29.72
2018-12-18T01:29:04.753Z,28.75
2018-12-18T01:31:32.903Z,28.87
2018-12-18T01:34:01.055Z,25.27
2018-12-18T01:36:29.186Z,28.02
2018-12-18T01:38:57.384Z,28.15
2018-12-18T01:41:25.594Z,33.55
2018-12-18T01:43:53.886Z,22.45
2018-12-18T01:46:22.170Z,27.32
2018-12-18T01:48:50.365Z,34.00
2018-12-18T01:51:20.434Z,33.28
2018-12-18T01:53:48.675Z,25.90
2018-12-18T01:56:16.858Z,23.83
2018-12-18T01:58:45.078Z,23.00
2018-12-18T02:01:13.257Z,21.65
2018-12-18T02:03:41.530Z,31.65
2018-12-18T02:06:09.879Z,26.90
2018-12-18T02:08:38.124Z,24.52
2018-12-18T02:11:06.394Z,25.80
2018-12-18T02:13:34.638Z,25.70
2018-12-18T02:16:02.899Z,30.43
2018-12-18T02:18:31.065Z,30.92
2018-12-18T02:20:59.393Z,34.48
2018-12-18T02:23:27.525Z,32.42
2018-12-18T02:25:55.697Z,23.62
2018-12-18T02:28:23.942Z,29.25
2018-12-18T02:30:52.137Z,27.00
2018-12-18T02:33:20.363Z,25.62
2018-12-18T02:35:48.615Z,27.82
2018-12-18T02:38:16.833Z,31.07
2018-12-18T02:40:45.071Z,36.15
2018-12-18T02:43:13.314Z,29.05
2018-12-18T02:45:41.496Z,30.40
2018-12-18T02:48:09.662Z,29.20
2018-12-18T02:50:37.918Z,35.63
2018-12-18T02:53:06.083Z,34.48
2018-12-18T02:55:34.349Z,38.08
2018-12-18T02:58:02.544Z,37.03
2018-12-18T03:00:30.974Z,37.28
2018-12-18T03:02:59.156Z,32.10
2018-12-18T03:05:27.314Z,33.28
2018-12-18T03:07:55.513Z,28.50
2018-12-18T03:10:23.732Z,29.10
2018-12-18T03:12:51.999Z,23.92
2018-12-18T03:15:20.333Z,34.60
2018-12-18T03:17:48.705Z,33.67
2018-12-18T03:20:16.987Z,23.38
2018-12-18T03:22:45.270Z,31.55
2018-12-18T03:25:13.586Z,22.98
2018-12-18T03:27:41.759Z,26.20
2018-12-18T03:30:10.214Z,30.35
2018-12-18T03:32:42.872Z,32.83
2018-12-18T03:35:11.206Z,18.42
2018-12-18T03:37:39.383Z,43.73
2018-12-18T03:40:07.713Z,28.67
2018-12-18T03:42:35.894Z,35.88
2018-12-18T03:45:04.417Z,29.77
2018-12-18T03:47:32.677Z,38.88
2018-12-18T03:50:00.910Z,35.20
2018-12-18T03:52:29.064Z,39.10
2018-12-18T03:54:57.365Z,35.73
2018-12-18T03:57:25.550Z,28.50
2018-12-18T03:59:53.726Z,36.95
2018-12-18T04:02:21.999Z,30.55
2018-12-18T04:04:50.242Z,35.48
2018-12-18T04:07:18.522Z,30.35
2018-12-18T04:09:46.702Z,27.37
2018-12-18T04:12:20.467Z,39.50
2018-12-18T04:14:48.799Z,34.65
2018-12-18T04:17:16.951Z,41.90
2018-12-18T04:19:45.180Z,32.78
2018-12-18T04:22:13.469Z,45.60
2018-12-18T04:24:41.718Z,36.00
2018-12-18T04:27:09.928Z,38.83
2018-12-18T04:32:28.801Z,43.28
2018-12-18T04:34:57.090Z,38.80
2018-12-18T04:37:25.401Z,43.20
2018-12-18T04:39:53.766Z,40.55
2018-12-18T04:42:22.154Z,37.03
2018-12-18T04:44:50.411Z,35.98
2018-12-18T04:47:18.653Z,43.83
2018-12-18T04:49:46.934Z,47.03
2018-12-18T04:52:21.867Z,33.23
2018-12-18T04:54:50.153Z,34.60
2018-12-18T04:57:18.464Z,40.48
2018-12-18T04:59:46.788Z,45.38
2018-12-18T05:02:15.039Z,41.40
2018-12-18T05:04:50.016Z,45.98
2018-12-18T05:07:13.626Z,45.73
2018-12-18T05:09:41.899Z,41.28
2018-12-18T05:12:10.214Z,41.50
2018-12-18T05:14:38.579Z,50.52
2018-12-18T05:17:06.873Z,30.82
2018-12-18T05:19:35.119Z,42.40
2018-12-18T05:22:03.494Z,39.63
2018-12-18T05:24:31.808Z,59.23
2018-12-18T05:27:00.050Z,46.28
2018-12-18T05:29:28.359Z,41.30
2018-12-18T05:31:56.625Z,39.88
2018-12-18T05:34:24.936Z,40.33
2018-12-18T05:36:53.188Z,64.72
2018-12-18T05:39:21.425Z,44.23
2018-12-18T05:41:49.763Z,37.53
2018-12-18T05:44:18.012Z,38.65
2018-12-18T05:46:46.292Z,36.73
2018-12-18T05:49:14.566Z,35.33
2018-12-18T05:51:42.858Z,38.25
2018-12-18T05:54:11.242Z,31.95
2018-12-18T05:56:39.507Z,31.07
2018-12-18T05:59:07.870Z,34.83
2018-12-18T06:01:36.244Z,33.00
2018-12-18T06:04:04.663Z,32.88
2018-12-18T06:06:32.901Z,39.78
2018-12-18T06:09:01.166Z,31.82
2018-12-18T06:11:29.484Z,34.13
2018-12-18T06:13:57.909Z,35.30
2018-12-18T06:16:26.266Z,39.40
2018-12-18T06:18:54.604Z,37.25
2018-12-18T06:21:22.905Z,40.75
2018-12-18T06:23:51.219Z,43.48
2018-12-18T06:26:19.659Z,32.53
2018-12-18T06:28:47.884Z,28.80
2018-12-18T06:31:16.240Z,47.43
2018-12-18T06:33:44.500Z,33.58
2018-12-18T06:36:12.858Z,39.05
2018-12-18T06:38:41.196Z,43.08
2018-12-18T06:41:09.515Z,37.42
2018-12-18T06:43:37.833Z,41.55
2018-12-18T06:46:09.239Z,32.98
2018-12-18T06:48:37.502Z,42.40
2018-12-18T06:51:05.819Z,37.58
2018-12-18T06:53:34.062Z,37.38
2018-12-18T06:56:02.347Z,35.15
2018-12-18T06:58:31.527Z,33.58
2018-12-18T07:00:59.787Z,32.15
2018-12-18T07:03:28.086Z,35.58
2018-12-18T07:05:56.484Z,36.58
2018-12-18T07:08:24.752Z,39.23
2018-12-18T07:10:53.009Z,29.95
2018-12-18T07:13:21.356Z,32.55
2018-12-18T07:15:49.654Z,27.67
2018-12-18T07:18:17.925Z,29.63
2018-12-18T07:20:46.213Z,36.58
2018-12-18T07:23:14.510Z,29.05
2018-12-18T07:25:42.767Z,32.08
2018-12-18T07:28:11.023Z,35.23
2018-12-18T07:30:39.374Z,32.65
2018-12-18T07:33:07.670Z,32.10
2018-12-18T07:35:36.221Z,29.92
2018-12-18T07:38:04.549Z,37.55
2018-12-18T07:40:32.876Z,33.98
2018-12-18T07:43:01.149Z,37.28
2018-12-18T07:45:29.451Z,27.62
2018-12-18T07:47:57.728Z,26.15
2018-12-18T07:50:25.982Z,29.45
2018-12-18T07:52:54.334Z,27.58
2018-12-18T07:55:22.570Z,29.10
2018-12-18T07:57:50.835Z,26.52
2018-12-18T08:00:19.256Z,23.67
2018-12-18T08:02:47.499Z,26.40
2018-12-18T08:05:15.909Z,26.33
2018-12-18T08:07:44.327Z,29.10
2018-12-18T08:10:12.721Z,27.65
2018-12-18T08:12:41.018Z,32.25
2018-12-18T08:15:09.381Z,31.20
2018-12-18T08:17:37.875Z,25.68
2018-12-18T08:20:06.432Z,30.85
2018-12-18T08:22:34.777Z,25.00
2018-12-18T08:25:03.116Z,18.80
2018-12-18T08:27:31.486Z,28.02
2018-12-18T08:29:59.767Z,21.48
2018-12-18T08:32:28.075Z,21.68
2018-12-18T08:34:56.721Z,17.12
2018-12-18T08:37:25.162Z,21.93
2018-12-18T08:39:53.458Z,24.60
2018-12-18T08:42:21.938Z,22.62
2018-12-18T08:44:50.265Z,25.27
2018-12-18T08:47:18.718Z,20.77
2018-12-18T08:49:46.980Z,25.05
2018-12-18T08:53:18.246Z,27.90
2018-12-18T08:55:46.500Z,23.40
2018-12-18T08:58:14.794Z,26.48
2018-12-18T09:00:43.300Z,27.45
2018-12-18T09:03:11.609Z,19.60
2018-12-18T09:05:43.199Z,26.97
2018-12-18T09:08:10.474Z,25.72
2018-12-18T09:10:39.972Z,26.77
2018-12-18T09:13:08.416Z,32.50
2018-12-18T09:15:42.082Z,25.20
2018-12-18T09:18:10.417Z,23.00
2018-12-18T09:20:39.515Z,21.87
2018-12-18T09:23:07.991Z,27.93
2018-12-18T09:25:36.255Z,28.65
2018-12-18T09:28:04.574Z,26.10
2018-12-18T09:30:33.466Z,22.10
2018-12-18T09:33:01.763Z,21.93
2018-12-18T09:35:30.059Z,22.73
2018-12-18T09:38:03.852Z,21.87
2018-12-18T09:40:36.438Z,24.67
2018-12-18T09:43:10.037Z,21.02
2018-12-18T09:45:38.323Z,18.48
2018-12-18T09:48:06.606Z,18.95
2018-12-18T09:50:35.663Z,21.70
2018-12-18T09:53:03.995Z,31.00
2018-12-18T09:55:32.311Z,18.12
2018-12-18T09:58:00.728Z,16.52
2018-12-18T10:00:29.067Z,19.60
2018-12-18T10:02:57.315Z,13.68
2018-12-18T10:05:25.630Z,13.53
2018-12-18T10:07:53.942Z,22.27
2018-12-18T10:10:22.379Z,17.27
2018-12-18T10:12:56.463Z,14.55
2018-12-18T10:15:25.560Z,15.97
2018-12-18T10:17:53.920Z,15.53
2018-12-18T10:20:22.487Z,12.80
2018-12-18T10:22:50.813Z,13.80
2018-12-18T10:25:19.174Z,16.73
2018-12-18T10:27:47.436Z,12.97
2018-12-18T10:30:15.899Z,11.90
2018-12-18T10:32:44.226Z,13.63
2018-12-18T10:35:12.605Z,12.43
2018-12-18T10:37:42.602Z,14.03
2018-12-18T10:40:11.390Z,9.57
2018-12-18T10:42:39.852Z,9.77
2018-12-18T10:45:13.856Z,13.63
2018-12-18T10:47:42.233Z,7.13
2018-12-18T10:50:10.500Z,10.63
2018-12-18T10:52:38.784Z,11.00
2018-12-18T10:55:07.554Z,8.13
2018-12-18T10:57:35.947Z,7.97
2018-12-18T11:00:08.675Z,10.73
2018-12-18T11:02:37.069Z,9.83
2018-12-18T11:05:05.893Z,9.40
2018-12-18T11:07:34.313Z,11.28
2018-12-18T11:10:02.782Z,11.97
2018-12-18T11:12:36.971Z,9.63
2018-12-18T11:15:06.365Z,20.20
2018-12-18T11:17:34.672Z,9.70
2018-12-18T11:20:03.441Z,12.47
2018-12-18T11:22:31.771Z,13.43
2018-12-18T11:25:00.084Z,9.30
2018-12-18T11:27:28.367Z,8.90
2018-12-18T11:29:56.721Z,15.77
2018-12-18T11:32:25.011Z,8.20
2018-12-18T11:34:53.358Z,11.13
2018-12-18T11:37:21.733Z,9.60
2018-12-18T11:39:50.079Z,9.47
2018-12-18T11:42:18.389Z,14.23
2018-12-18T11:44:46.708Z,8.77
2018-12-18T11:47:15.015Z,14.30
2018-12-18T11:49:43.514Z,8.20
2018-12-18T11:52:11.881Z,11.80
2018-12-18T11:54:40.202Z,8.83
2018-12-18T11:57:08.532Z,12.07
2018-12-18T11:59:36.885Z,8.90
2018-12-18T12:02:05.334Z,8.13
2018-12-18T12:04:33.563Z,13.45
2018-12-18T12:07:01.872Z,15.27
2018-12-18T12:09:30.610Z,16.00
2018-12-18T12:11:58.970Z,6.30
2018-12-18T12:14:27.238Z,10.47
2018-12-18T12:16:55.567Z,9.37
2018-12-18T12:19:23.853Z,9.57
2018-12-18T12:21:52.138Z,8.50
2018-12-18T12:24:20.493Z,12.20
2018-12-18T12:26:48.802Z,6.23
2018-12-18T12:29:17.420Z,6.55
2018-12-18T12:31:45.775Z,7.97
2018-12-18T12:34:14.078Z,5.10
2018-12-18T12:36:42.470Z,4.70
2018-12-18T12:39:10.800Z,6.60
2018-12-18T12:41:39.042Z,11.60
2018-12-18T12:44:07.295Z,4.53
2018-12-18T12:46:35.572Z,6.10
2018-12-18T12:49:10.988Z,5.60
2018-12-18T12:51:39.463Z,7.45
2018-12-18T12:54:07.782Z,8.77
2018-12-18T12:56:36.176Z,6.28
2018-12-18T12:59:04.670Z,6.07
2018-12-18T13:01:33.863Z,4.77
2018-12-18T13:04:02.237Z,8.03
2018-12-18T13:06:36.206Z,7.87
2018-12-18T13:09:00.983Z,9.23
2018-12-18T13:11:29.913Z,6.20
2018-12-18T13:13:58.247Z,7.47
2018-12-18T13:16:26.493Z,8.23
2018-12-18T13:18:54.862Z,5.50
2018-12-18T13:21:23.202Z,10.60
2018-12-18T13:23:51.480Z,5.83
2018-12-18T13:26:19.734Z,6.37
2018-12-18T13:28:48.194Z,7.20
2018-12-18T13:31:16.505Z,11.50
2018-12-18T13:33:44.797Z,6.30
2018-12-18T13:36:13.021Z,8.10
2018-12-18T13:38:41.367Z,8.20
2018-12-18T13:41:09.846Z,9.85
2018-12-18T13:43:38.177Z,8.13
2018-12-18T13:46:06.545Z,6.73
2018-12-18T13:48:34.913Z,8.30
2018-12-18T13:51:03.425Z,10.30
2018-12-18T13:53:31.847Z,3.97
2018-12-18T13:56:00.202Z,8.45
2018-12-18T13:58:28.566Z,6.72
2018-12-18T14:00:56.880Z,8.33
2018-12-18T14:03:25.137Z,6.17
2018-12-18T14:05:53.494Z,6.33
2018-12-18T14:08:21.793Z,7.07
2018-12-18T14:10:50.234Z,6.33
2018-12-18T14:13:18.491Z,5.57
2018-12-18T14:15:46.757Z,3.73
2018-12-18T14:18:15.016Z,5.90
2018-12-18T14:20:43.282Z,6.30
2018-12-18T14:23:11.553Z,7.97
2018-12-18T14:25:39.824Z,5.77
2018-12-18T14:28:08.133Z,5.22
2018-12-18T14:30:36.378Z,4.80
2018-12-18T14:33:04.706Z,8.70
2018-12-18T14:35:33.035Z,6.30
2018-12-18T14:38:01.290Z,4.13
2018-12-18T14:40:29.618Z,11.40
2018-12-18T14:42:57.991Z,7.17
2018-12-18T14:45:26.351Z,11.87
2018-12-18T14:47:54.643Z,7.15
2018-12-18T14:50:23.589Z,5.83
2018-12-18T14:52:51.854Z,11.57
2018-12-18T14:55:20.133Z,7.55
2018-12-18T14:57:48.391Z,5.15
2018-12-18T15:00:16.665Z,7.30
2018-12-18T15:02:44.916Z,9.48
2018-12-18T15:05:13.173Z,6.10
2018-12-18T15:07:41.495Z,4.55
2018-12-18T15:10:09.879Z,5.13
2018-12-18T15:12:42.443Z,5.05
2018-12-18T15:15:10.700Z,5.17
2018-12-18T15:17:38.971Z,8.60
2018-12-18T15:20:09.012Z,15.18
2018-12-18T15:22:37.284Z,6.28
2018-12-18T15:25:06.125Z,4.42
2018-12-18T15:27:34.366Z,11.33
2018-12-18T15:30:02.745Z,7.30
2018-12-18T15:32:31.171Z,7.33
2018-12-18T15:34:59.447Z,8.60
2018-12-18T15:37:27.660Z,4.60
2018-12-18T15:39:55.972Z,8.73
2018-12-18T15:42:24.219Z,10.15
2018-12-18T15:44:52.468Z,7.58
2018-12-18T15:47:20.704Z,4.00
2018-12-18T15:49:48.929Z,4.40
2018-12-18T15:53:47.432Z,8.28
2018-12-18T15:56:15.748Z,5.67
2018-12-18T15:58:44.024Z,6.75
2018-12-18T16:01:12.387Z,6.80
2018-12-18T16:03:40.678Z,7.17
2018-12-18T16:06:08.955Z,5.62
2018-12-18T16:08:37.253Z,18.77
2018-12-18T16:11:05.507Z,6.05
2018-12-18T16:13:33.768Z,7.28
2018-12-18T16:16:02.613Z,4.80
2018-12-18T16:18:30.938Z,7.33
2018-12-18T16:20:59.212Z,10.20
2018-12-18T16:23:27.451Z,9.25
2018-12-18T16:25:55.747Z,14.58
2018-12-18T16:28:24.142Z,7.75
2018-12-18T16:30:52.493Z,9.40
2018-12-18T16:33:20.864Z,6.80
2018-12-18T16:35:49.131Z,7.40
2018-12-18T16:38:17.428Z,8.95
2018-12-18T16:40:45.691Z,8.98
2018-12-18T16:43:13.999Z,6.75
2018-12-18T16:45:42.215Z,13.70
2018-12-18T16:48:10.495Z,12.70
2018-12-18T16:50:38.822Z,16.02
2018-12-18T16:53:07.117Z,9.83
2018-12-18T16:55:35.422Z,7.85
2018-12-18T16:58:03.855Z,6.97
2018-12-18T17:00:32.091Z,9.28
2018-12-18T17:03:00.382Z,5.85
2018-12-18T17:05:28.643Z,12.30
2018-12-18T17:07:56.952Z,10.25
2018-12-18T17:10:25.816Z,5.10
2018-12-18T17:12:57.038Z,10.10
2018-12-18T17:15:25.675Z,10.10
2018-12-18T17:17:53.915Z,11.60
2018-12-18T17:20:22.136Z,8.40
2018-12-18T17:22:50.379Z,9.40
2018-12-18T17:25:18.641Z,11.80
2018-12-18T17:27:46.926Z,12.68
2018-12-18T17:30:15.173Z,8.03
2018-12-18T17:32:43.441Z,16.67
2018-12-18T17:35:11.873Z,8.80
2018-12-18T17:37:40.110Z,12.33
2018-12-18T17:40:09.091Z,7.22
2018-12-18T17:42:37.332Z,8.08
2018-12-18T17:45:07.077Z,14.43
2018-12-18T17:47:35.694Z,8.23
2018-12-18T17:50:04.743Z,12.30
2018-12-18T17:52:33.192Z,7.65
2018-12-18T17:55:01.479Z,15.58
2018-12-18T17:57:29.754Z,9.50
2018-12-18T17:59:58.058Z,7.42
2018-12-18T18:02:26.304Z,12.18
2018-12-18T18:04:54.583Z,9.83
2018-12-18T18:07:22.822Z,10.05
2018-12-18T18:09:51.079Z,8.63
2018-12-18T18:12:19.298Z,10.35
2018-12-18T18:14:47.590Z,10.60
2018-12-18T18:17:15.835Z,10.15
2018-12-18T18:19:44.089Z,10.50
2018-12-18T18:22:12.679Z,7.03
2018-12-18T18:24:41.108Z,12.82
2018-12-18T18:27:09.413Z,11.10
2018-12-18T18:29:37.676Z,9.63
2018-12-18T18:32:06.015Z,6.65
2018-12-18T18:34:34.399Z,16.07
2018-12-18T18:37:02.638Z,11.97
2018-12-18T18:39:30.879Z,8.45
2018-12-18T18:41:59.123Z,8.48
2018-12-18T18:44:27.340Z,7.15
2018-12-18T18:46:55.634Z,10.20
2018-12-18T18:49:23.911Z,6.90
2018-12-18T18:51:52.203Z,12.33
2018-12-18T18:54:20.420Z,11.93
2018-12-18T18:56:48.702Z,9.38
2018-12-18T18:59:17.005Z,14.87
2018-12-18T19:01:45.308Z,10.93
2018-12-18T19:04:13.550Z,9.28
2018-12-18T19:06:41.838Z,13.72
2018-12-18T19:09:10.080Z,5.28
2018-12-18T19:11:38.403Z,12.18
2018-12-18T19:14:06.704Z,7.33
2018-12-18T19:16:34.962Z,10.55
2018-12-18T19:19:03.197Z,8.50
2018-12-18T19:21:31.841Z,8.33
2018-12-18T19:24:00.132Z,8.50
2018-12-18T19:26:29.690Z,8.25
2018-12-18T19:28:57.946Z,9.48
2018-12-18T19:31:26.192Z,8.73
2018-12-18T19:33:54.524Z,11.03
2018-12-18T19:36:22.975Z,10.82
2018-12-18T19:38:51.171Z,6.33
2018-12-18T19:41:19.455Z,9.35
2018-12-18T19:43:47.726Z,10.95
2018-12-18T19:46:15.995Z,11.65
2018-12-18T19:48:44.429Z,7.60
2018-12-18T19:51:12.728Z,8.10
2018-12-18T19:53:41.019Z,11.28
2018-12-18T19:56:09.291Z,7.45
2018-12-18T19:58:37.566Z,11.55
2018-12-18T20:01:05.914Z,9.10
2018-12-18T20:03:34.326Z,11.78
2018-12-18T20:06:02.545Z,10.40
2018-12-18T20:08:30.813Z,12.98
2018-12-18T20:10:59.063Z,10.20
2018-12-18T20:13:27.352Z,5.65
2018-12-18T20:15:55.619Z,12.95
2018-12-18T20:18:23.864Z,12.73
2018-12-18T20:20:52.105Z,11.85
2018-12-18T20:23:20.443Z,12.13
2018-12-18T20:25:48.834Z,10.75
2018-12-18T20:28:17.133Z,14.43
2018-12-18T20:30:45.373Z,13.85
2018-12-18T20:33:14.297Z,13.00
2018-12-18T20:35:42.539Z,14.45
2018-12-18T20:38:16.646Z,12.55
2018-12-18T20:40:41.148Z,10.48
2018-12-18T20:43:09.415Z,12.55
2018-12-18T20:45:37.662Z,15.20
2018-12-18T20:48:05.911Z,16.42
2018-12-18T20:50:34.378Z,14.55
2018-12-18T20:53:02.831Z,9.88
2018-12-18T20:55:31.067Z,15.25
2018-12-18T20:57:59.302Z,15.50
2018-12-18T21:00:27.656Z,20.12
2018-12-18T21:02:56.418Z,17.15
2018-12-18T21:05:24.843Z,21.25
2018-12-18T21:07:53.397Z,22.25
2018-12-18T21:10:21.672Z,14.90
2018-12-18T21:12:49.994Z,22.30
2018-12-18T21:15:18.321Z,23.00
2018-12-18T21:17:46.627Z,19.35
2018-12-18T21:20:14.893Z,23.92
2018-12-18T21:22:43.265Z,20.65
2018-12-18T21:25:11.494Z,24.25
2018-12-18T21:27:39.857Z,25.62
2018-12-18T21:30:09.055Z,26.45
2018-12-18T21:32:37.385Z,26.60
2018-12-18T21:35:05.951Z,24.07
2018-12-18T21:37:34.333Z,28.12
2018-12-18T21:40:02.803Z,27.52
2018-12-18T21:42:31.218Z,18.45
2018-12-18T21:45:00.093Z,21.90
2018-12-18T21:47:28.432Z,35.83
2018-12-18T21:49:56.769Z,25.32
2018-12-18T21:52:25.063Z,27.17
2018-12-18T21:54:53.300Z,27.25
2018-12-18T21:57:21.506Z,20.12
2018-12-18T21:59:49.770Z,33.53
2018-12-18T22:02:18.062Z,33.65
2018-12-18T22:04:46.296Z,27.75
2018-12-18T22:07:14.574Z,28.00
2018-12-18T22:09:42.811Z,30.65
2018-12-18T22:12:11.138Z,17.60
2018-12-18T22:14:39.410Z,26.10
2018-12-18T22:17:07.631Z,22.17
2018-12-18T22:19:35.853Z,21.80
2018-12-18T22:22:04.309Z,32.23
2018-12-18T22:24:32.602Z,20.40
2018-12-18T22:27:00.978Z,30.48
2018-12-18T22:29:29.375Z,25.37
2018-12-18T22:31:57.675Z,30.88
2018-12-18T22:34:25.903Z,30.92
2018-12-18T22:36:54.203Z,32.58
2018-12-18T22:39:22.511Z,24.40
2018-12-18T22:41:50.843Z,24.27
2018-12-18T22:44:19.077Z,25.32
2018-12-18T22:46:47.361Z,31.62
2018-12-18T22:49:15.740Z,31.05
2018-12-18T22:51:44.053Z,33.30
2018-12-18T22:54:12.303Z,24.27
2018-12-18T22:56:40.610Z,29.40
2018-12-18T22:59:08.900Z,29.23
2018-12-18T23:01:41.437Z,28.42
2018-12-18T23:04:09.702Z,22.50
2018-12-18T23:06:38.049Z,23.22
2018-12-18T23:09:09.590Z,26.60
2018-12-18T23:11:37.950Z,23.50
2018-12-18T23:14:06.293Z,29.82
2018-12-18T23:16:34.542Z,22.52
2018-12-18T23:19:02.936Z,25.20
2018-12-18T23:21:32.151Z,38.17
2018-12-18T23:24:00.446Z,28.00
2018-12-18T23:26:28.907Z,30.75
2018-12-18T23:28:57.235Z,23.02
2018-12-18T23:31:25.526Z,33.67
2018-12-18T23:33:53.786Z,28.00
2018-12-18T23:36:22.004Z,28.70
2018-12-18T23:38:56.626Z,27.58
2018-12-18T23:41:20.535Z,29.48
2018-12-18T23:43:48.760Z,26.95
2018-12-18T23:46:17.018Z,28.62
2018-12-18T23:48:45.263Z,26.12
2018-12-18T23:51:13.535Z,30.15
2018-12-18T23:53:41.832Z,29.02
2018-12-18T23:56:10.143Z,28.10
2018-12-18T23:58:38.505Z,29.00
